Jindrichuv Hradec, Czech Republic
Current Conditions -  °F | °C
As of 7:00 AM on Sunday 23 Nov 2014 (Local Time) from LKNA Reporting Station
Overcast Overcast  
Wind Chill: 32°   Ceiling: 1500
Heat Index: 37°   Visibility: 6mi
Dew Point: 37°   Wind: 7mph
Humidity: 100%   Direction: 130°SE
Pressure: 30.3"   Gusts: NA
Location:  49.15°N, 14.99°E
Report Text: LKNA 230500Z 13006KT 9000 SCT010 OVC015 03/03 Q1026 NOSIG
Loading
Personal Weather Stations






























Interactive Weather Map New forecast layout! Learn more

10-Day Weather Forecast

Advertisements
Track Severe Weather on mobile